Time;durP1;ratioP1;P1;durP2;ratioP2;P2;SDS_P1;SDS_P2;PMS_P1;PMS_P2;Temp;Humidity;BMP_temperature;BMP_pressure;BME280_temperature;BME280_humidity;BME280_pressure;Samples;Min_cycle;Max_cycle;Signal;HPM_P1;HPM_P2
2021/12/16 05:01:09;;;;;;;31.87;21.83;;;5.50;99.90;;;;;;5626295;23;20515;-71
2021/12/16 05:03:37;;;;;;;31.57;23.20;;;5.60;99.90;;;;;;4977302;28;20455;-71
2021/12/16 05:06:04;;;;;;;30.73;22.30;;;5.70;99.90;;;;;;4977937;28;20451;-72
2021/12/16 05:08:32;;;;;;;32.53;23.83;;;5.70;99.90;;;;;;4977938;28;20457;-70
2021/12/16 05:11:02;;;;;;;31.53;21.73;;;5.70;99.90;;;;;;4977099;28;20985;-71
2021/12/16 05:13:30;;;;;;;31.70;22.03;;;5.80;99.90;;;;;;4977159;28;20462;-70
2021/12/16 05:16:01;;;;;;;33.00;22.47;;;5.80;99.90;;;;;;4977030;28;20462;-72
2021/12/16 05:18:33;;;;;;;29.93;21.70;;;5.90;99.90;;;;;;4978573;28;20463;-71
2021/12/16 05:21:02;;;;;;;33.40;22.73;;;5.80;99.90;;;;;;4978785;28;20538;-71
2021/12/16 05:26:18;;;;;;;32.03;22.33;;;5.80;99.90;;;;;;4978922;28;20439;-71
2021/12/16 05:28:47;;;;;;;32.50;23.17;;;5.90;99.90;;;;;;4977614;28;20797;-71
2021/12/16 05:31:15;;;;;;;34.10;23.20;;;5.70;99.90;;;;;;4976979;28;20475;-71
2021/12/16 05:33:44;;;;;;;36.80;23.53;;;5.80;99.90;;;;;;4976778;28;20451;-70
2021/12/16 05:36:11;;;;;;;35.70;24.20;;;5.80;99.90;;;;;;4975949;28;20459;-71
2021/12/16 05:38:39;;;;;;;33.53;22.13;;;5.90;99.90;;;;;;4976348;28;20479;-72
2021/12/16 05:41:10;;;;;;;31.47;21.97;;;5.90;99.90;;;;;;4976389;28;20480;-72
2021/12/16 05:43:38;;;;;;;32.90;21.93;;;5.90;99.90;;;;;;4976144;28;20439;-71
2021/12/16 05:46:06;;;;;;;31.10;21.00;;;5.80;99.90;;;;;;4976479;28;20478;-71
2021/12/16 05:48:36;;;;;;;34.13;22.77;;;5.80;99.90;;;;;;4975998;28;20961;-71
2021/12/16 05:51:07;;;;;;;35.20;21.90;;;5.90;99.90;;;;;;4976884;28;20843;-71
2021/12/16 05:53:34;;;;;;;31.93;21.10;;;6.00;99.90;;;;;;4976439;28;20444;-71
2021/12/16 05:56:02;;;;;;;34.83;20.97;;;6.00;99.90;;;;;;4976029;28;20451;-69
2021/12/16 05:58:29;;;;;;;33.63;22.63;;;6.00;99.90;;;;;;4976002;28;21012;-71
2021/12/16 06:00:58;;;;;;;32.47;22.03;;;6.10;99.90;;;;;;4975869;28;20498;-72
2021/12/16 06:03:26;;;;;;;35.20;22.30;;;6.10;99.90;;;;;;4975892;28;20823;-72
2021/12/16 06:05:54;;;;;;;36.20;22.60;;;6.10;99.90;;;;;;4976146;28;20462;-71
2021/12/16 06:08:22;;;;;;;34.57;21.57;;;6.10;99.90;;;;;;4976387;28;20451;-71
2021/12/16 06:13:35;;;;;;;31.67;20.93;;;6.00;99.90;;;;;;4959768;28;20457;-71
2021/12/16 06:27:04;;;;;;;29.60;19.83;;;6.00;99.90;;;;;;4975946;28;20418;-71
2021/12/16 06:29:31;;;;;;;32.93;21.40;;;6.00;99.90;;;;;;4976046;28;20470;-71
2021/12/16 06:31:58;;;;;;;28.70;20.47;;;5.90;99.90;;;;;;4975825;28;20982;-71
2021/12/16 06:34:25;;;;;;;31.03;20.83;;;5.90;99.90;;;;;;4976564;28;20447;-71
2021/12/16 06:36:52;;;;;;;31.80;20.73;;;5.90;99.90;;;;;;4977368;28;20480;-71
2021/12/16 06:39:21;;;;;;;32.50;20.40;;;5.90;99.90;;;;;;4980007;28;20479;-71
2021/12/16 06:41:47;;;;;;;27.47;20.00;;;5.90;99.90;;;;;;4980480;28;20479;-71
2021/12/16 06:44:21;;;;;;;28.43;19.40;;;5.90;99.90;;;;;;4980277;28;20458;-71
2021/12/16 06:46:49;;;;;;;28.53;18.77;;;6.00;99.90;;;;;;4976569;28;20502;-71
2021/12/16 06:49:18;;;;;;;31.40;20.30;;;6.00;99.90;;;;;;4979708;28;20483;-71
2021/12/16 06:51:50;;;;;;;28.63;19.47;;;6.00;99.90;;;;;;4979651;28;20479;-71
2021/12/16 06:54:24;;;;;;;29.27;19.10;;;6.00;99.90;;;;;;4979806;28;20500;-70
2021/12/16 06:57:01;;;;;;;29.80;20.77;;;6.00;99.90;;;;;;4979480;28;20910;-70
2021/12/16 06:59:31;;;;;;;26.30;18.50;;;6.00;99.90;;;;;;4979965;28;20466;-70
2021/12/16 07:02:09;;;;;;;29.13;20.13;;;6.00;99.90;;;;;;4978958;28;20565;-70
2021/12/16 07:04:37;;;;;;;27.60;18.77;;;6.00;99.90;;;;;;4980400;28;20549;-71
2021/12/16 07:07:06;;;;;;;23.57;17.50;;;5.90;99.90;;;;;;4979334;28;20502;-71
2021/12/16 07:09:33;;;;;;;27.73;17.90;;;5.90;99.90;;;;;;4979351;28;20450;-71
2021/12/16 07:12:02;;;;;;;23.30;17.10;;;5.90;99.90;;;;;;4980854;28;20483;-71
2021/12/16 07:14:37;;;;;;;25.90;17.27;;;5.90;99.90;;;;;;4985544;28;20443;-70
2021/12/16 07:17:06;;;;;;;22.10;15.97;;;6.00;99.90;;;;;;4981422;28;20442;-67
2021/12/16 07:19:33;;;;;;;24.07;18.33;;;6.10;99.90;;;;;;4979097;28;20483;-66
2021/12/16 07:22:01;;;;;;;22.87;16.73;;;6.30;99.90;;;;;;4979428;28;20486;-67
2021/12/16 07:24:27;;;;;;;22.70;17.27;;;6.70;99.90;;;;;;4978820;28;20450;-66
2021/12/16 07:26:54;;;;;;;21.67;17.47;;;7.10;99.90;;;;;;4978836;28;20465;-67
2021/12/16 07:29:23;;;;;;;22.00;17.60;;;7.10;99.90;;;;;;4978728;28;20462;-67
2021/12/16 07:31:50;;;;;;;19.63;15.97;;;7.10;99.90;;;;;;4978203;28;20481;-66
2021/12/16 07:34:18;;;;;;;21.10;16.20;;;7.40;99.90;;;;;;4978600;28;20462;-66
2021/12/16 07:36:46;;;;;;;19.80;16.03;;;7.40;99.90;;;;;;4978400;28;20458;-66
2021/12/16 07:39:15;;;;;;;21.97;16.50;;;7.30;99.90;;;;;;4978363;28;20475;-66
2021/12/16 07:41:46;;;;;;;21.50;16.70;;;7.30;99.90;;;;;;4978400;28;20990;-67
2021/12/16 07:44:14;;;;;;;22.63;18.00;;;7.20;99.90;;;;;;4979179;28;20808;-70
2021/12/16 07:46:45;;;;;;;21.30;15.77;;;7.00;99.90;;;;;;4979186;28;20486;-70
2021/12/16 07:49:16;;;;;;;23.43;18.40;;;6.80;99.90;;;;;;4978618;28;20449;-70
2021/12/16 07:51:43;;;;;;;25.33;18.63;;;6.70;99.90;;;;;;4978353;28;20511;-70
2021/12/16 07:54:12;;;;;;;26.27;19.20;;;6.60;99.90;;;;;;4978050;28;20459;-70
2021/12/16 07:56:39;;;;;;;24.53;17.40;;;6.60;99.90;;;;;;4978491;28;20455;-70
2021/12/16 07:59:07;;;;;;;25.90;18.30;;;6.60;99.90;;;;;;4977217;28;20478;-70
2021/12/16 08:01:35;;;;;;;25.67;17.67;;;6.50;99.90;;;;;;4977762;28;20521;-70
2021/12/16 08:04:03;;;;;;;25.70;18.37;;;6.50;99.90;;;;;;4978352;28;20943;-70
2021/12/16 08:06:33;;;;;;;22.77;16.53;;;6.30;99.90;;;;;;4978110;28;20487;-70
2021/12/16 08:09:03;;;;;;;25.40;18.47;;;6.30;99.90;;;;;;4978158;28;20451;-70
2021/12/16 08:11:33;;;;;;;23.10;17.23;;;6.30;99.90;;;;;;4978590;28;20552;-70
2021/12/16 08:14:02;;;;;;;28.63;18.80;;;6.40;99.90;;;;;;4978407;28;20507;-70
2021/12/16 08:16:29;;;;;;;27.40;18.57;;;6.40;99.90;;;;;;4978220;28;20474;-70
2021/12/16 08:18:56;;;;;;;23.33;16.10;;;6.50;99.90;;;;;;4978039;28;20483;-70
2021/12/16 08:21:28;;;;;;;23.10;17.83;;;6.60;99.90;;;;;;4978295;28;20534;-70
2021/12/16 08:23:55;;;;;;;23.67;17.63;;;6.60;99.90;;;;;;4977847;28;20510;-70
2021/12/16 08:26:22;;;;;;;24.40;18.60;;;6.60;99.90;;;;;;4977874;28;20462;-70
2021/12/16 08:28:49;;;;;;;21.63;16.77;;;6.60;99.90;;;;;;4977897;28;20459;-70
2021/12/16 08:31:16;;;;;;;24.97;17.87;;;6.70;99.90;;;;;;4977836;28;20483;-70
2021/12/16 08:33:43;;;;;;;24.40;18.27;;;6.60;99.90;;;;;;4978169;28;20461;-70
2021/12/16 08:36:10;;;;;;;24.87;17.40;;;6.70;99.90;;;;;;4980556;28;20466;-70
2021/12/16 08:38:39;;;;;;;28.87;18.60;;;6.70;99.90;;;;;;4978732;28;20841;-70
2021/12/16 08:41:09;;;;;;;23.90;18.10;;;6.70;99.90;;;;;;4977516;28;20502;-69
2021/12/16 08:43:36;;;;;;;21.57;17.17;;;6.80;99.90;;;;;;4978623;28;20846;-70
2021/12/16 08:46:04;;;;;;;22.57;16.70;;;6.70;99.90;;;;;;4981728;28;20451;-69
2021/12/16 08:48:30;;;;;;;25.63;18.97;;;6.60;99.90;;;;;;4979137;28;20861;-69
2021/12/16 08:50:58;;;;;;;23.37;17.40;;;6.60;99.90;;;;;;4979597;28;20483;-71
2021/12/16 08:53:25;;;;;;;21.80;17.57;;;6.60;99.90;;;;;;4980810;28;20976;-70
2021/12/16 08:55:54;;;;;;;23.40;18.10;;;6.70;99.90;;;;;;4982445;28;20458;-71
2021/12/16 08:58:21;;;;;;;26.20;19.20;;;6.70;99.90;;;;;;4979070;28;20486;-71
2021/12/16 09:00:52;;;;;;;25.77;17.80;;;6.70;99.90;;;;;;4978035;28;20487;-70
2021/12/16 09:03:19;;;;;;;27.93;18.23;;;6.70;99.90;;;;;;4983319;28;20459;-71
2021/12/16 09:05:46;;;;;;;38.43;18.23;;;6.60;99.90;;;;;;4981319;28;20965;-71
2021/12/16 09:08:13;;;;;;;24.80;18.50;;;6.60;99.90;;;;;;4978124;28;20638;-72
2021/12/16 09:10:41;;;;;;;26.43;17.47;;;6.70;99.90;;;;;;4977112;28;20479;-71
2021/12/16 09:13:13;;;;;;;24.43;17.67;;;6.80;99.90;;;;;;4977714;28;20458;-71
2021/12/16 09:15:42;;;;;;;22.90;17.30;;;6.80;99.90;;;;;;4977285;28;20911;-71
2021/12/16 09:18:10;;;;;;;21.07;17.40;;;6.70;99.90;;;;;;4976457;28;20968;-71
2021/12/16 09:20:37;;;;;;;22.87;18.37;;;6.60;99.90;;;;;;4976728;28;20471;-71
2021/12/16 09:23:05;;;;;;;26.57;19.43;;;6.60;99.90;;;;;;4976811;28;20463;-71
2021/12/16 09:25:32;;;;;;;23.20;17.33;;;6.60;99.90;;;;;;4977037;28;20455;-71
2021/12/16 09:27:59;;;;;;;20.60;16.70;;;6.70;99.90;;;;;;4976868;28;20459;-71
2021/12/16 09:30:30;;;;;;;24.40;17.03;;;6.70;99.90;;;;;;4976534;28;20451;-71
2021/12/16 09:32:59;;;;;;;28.70;17.83;;;6.70;99.90;;;;;;4976635;28;20880;-71
2021/12/16 09:35:28;;;;;;;22.83;18.20;;;6.70;99.90;;;;;;4976282;28;20526;-71
2021/12/16 09:37:56;;;;;;;29.20;22.10;;;6.70;99.90;;;;;;4976727;28;20455;-71
2021/12/16 09:40:28;;;;;;;26.40;19.50;;;6.70;99.90;;;;;;4976988;28;20479;-71
2021/12/16 09:42:57;;;;;;;20.90;17.80;;;6.70;99.90;;;;;;4986221;28;20436;-71
2021/12/16 09:45:24;;;;;;;22.67;16.87;;;6.60;99.90;;;;;;4986160;28;20463;-71
2021/12/16 09:47:53;;;;;;;23.43;17.40;;;6.60;99.90;;;;;;4976917;28;20455;-70
2021/12/16 09:50:24;;;;;;;27.70;18.80;;;6.60;99.90;;;;;;4976740;28;20935;-71
2021/12/16 09:52:51;;;;;;;31.50;18.70;;;6.60;99.90;;;;;;4976385;28;20443;-71
2021/12/16 09:55:19;;;;;;;21.00;17.30;;;6.70;99.90;;;;;;4976490;28;20864;-71
2021/12/16 09:57:47;;;;;;;24.43;17.90;;;6.80;99.90;;;;;;4977057;28;20458;-70
2021/12/16 10:00:19;;;;;;;22.23;16.57;;;6.90;99.90;;;;;;4976037;28;20574;-71
2021/12/16 10:02:48;;;;;;;20.43;16.97;;;6.90;99.90;;;;;;4976069;28;20475;-71
2021/12/16 10:05:17;;;;;;;21.37;16.60;;;7.00;99.90;;;;;;4976020;28;20550;-71
2021/12/16 10:07:44;;;;;;;22.00;17.67;;;7.10;99.90;;;;;;4976129;28;20462;-71
2021/12/16 10:10:13;;;;;;;21.40;16.50;;;7.10;99.90;;;;;;4976230;28;20447;-71
2021/12/16 10:12:44;;;;;;;24.30;18.27;;;7.00;99.90;;;;;;4975820;28;20451;-71
2021/12/16 10:17:55;;;;;;;22.37;17.30;;;6.90;99.90;;;;;;4975700;28;20814;-71
2021/12/16 10:20:27;;;;;;;22.00;17.10;;;6.90;99.90;;;;;;4975921;28;20487;-71
2021/12/16 10:23:03;;;;;;;20.93;16.30;;;6.90;99.90;;;;;;4975779;28;20860;-71
2021/12/16 10:25:34;;;;;;;23.10;17.60;;;6.90;99.90;;;;;;4976079;28;20439;-70
2021/12/16 10:28:08;;;;;;;21.13;17.87;;;6.90;99.90;;;;;;4976792;28;20898;-70
2021/12/16 10:30:55;;;;;;;22.33;17.77;;;6.90;99.90;;;;;;4976272;28;20489;-70
2021/12/16 10:33:32;;;;;;;26.37;17.90;;;6.90;99.90;;;;;;4976130;28;20443;-70
2021/12/16 10:36:08;;;;;;;24.27;17.57;;;6.90;99.90;;;;;;4975929;28;20439;-71
2021/12/16 10:38:37;;;;;;;21.40;17.90;;;6.90;99.90;;;;;;4975819;28;20450;-70
2021/12/16 10:41:06;;;;;;;23.77;18.20;;;6.90;99.90;;;;;;4975771;28;20479;-71
2021/12/16 10:43:35;;;;;;;17.07;15.23;;;6.90;99.90;;;;;;4975963;28;20461;-71
2021/12/16 10:46:08;;;;;;;19.10;15.60;;;7.00;99.90;;;;;;4975961;28;20818;-71
2021/12/16 10:48:37;;;;;;;23.17;14.97;;;7.10;99.90;;;;;;4976036;28;20930;-71
2021/12/16 10:51:19;;;;;;;19.43;16.50;;;7.20;99.90;;;;;;4976283;28;20487;-70
2021/12/16 10:54:21;;;;;;;21.90;19.07;;;7.30;99.90;;;;;;4982579;28;20850;-71
2021/12/16 10:57:04;;;;;;;22.70;17.80;;;7.30;99.90;;;;;;4976180;28;20439;-72
2021/12/16 10:59:35;;;;;;;21.10;15.60;;;7.30;99.90;;;;;;4975980;28;20466;-71
2021/12/16 11:02:08;;;;;;;21.20;16.80;;;7.30;99.90;;;;;;4975576;28;20491;-71
2021/12/16 11:04:39;;;;;;;25.37;17.60;;;7.40;99.90;;;;;;4975725;28;20443;-71
2021/12/16 11:07:15;;;;;;;17.90;15.67;;;7.40;99.90;;;;;;4975542;28;20447;-71
2021/12/16 11:09:49;;;;;;;20.30;16.03;;;7.50;99.90;;;;;;4975463;28;20953;-71
2021/12/16 11:12:33;;;;;;;20.43;16.60;;;7.60;99.90;;;;;;4975326;28;20487;-71
2021/12/16 11:15:05;;;;;;;20.30;16.90;;;7.60;99.90;;;;;;4973411;28;20938;-71
2021/12/16 11:17:36;;;;;;;19.87;16.27;;;7.60;99.90;;;;;;4975588;28;20459;-71
2021/12/16 11:20:12;;;;;;;17.87;14.93;;;7.60;99.90;;;;;;4975512;28;20470;-71
2021/12/16 11:22:41;;;;;;;19.60;15.50;;;7.60;99.90;;;;;;4975479;28;20466;-71
2021/12/16 11:25:15;;;;;;;17.10;14.90;;;7.70;99.90;;;;;;4975341;28;20961;-71
2021/12/16 11:27:44;;;;;;;21.40;16.97;;;7.70;99.90;;;;;;4975582;28;20463;-71
2021/12/16 11:30:27;;;;;;;21.93;17.93;;;7.80;99.90;;;;;;4975870;28;20457;-71
2021/12/16 11:32:55;;;;;;;20.03;15.93;;;7.80;99.90;;;;;;4975620;28;20526;-71
2021/12/16 11:35:43;;;;;;;20.63;17.00;;;7.80;99.90;;;;;;4977335;28;20470;-71
2021/12/16 11:38:18;;;;;;;20.87;16.27;;;7.80;99.90;;;;;;4978312;28;20911;-71
2021/12/16 11:40:53;;;;;;;29.70;15.67;;;7.80;99.90;;;;;;4978924;28;20531;-71
2021/12/16 11:43:32;;;;;;;21.07;15.47;;;7.80;99.90;;;;;;4978874;28;20810;-71
2021/12/16 11:45:59;;;;;;;19.60;15.63;;;7.70;99.90;;;;;;4978743;28;20450;-71
2021/12/16 11:48:31;;;;;;;18.93;15.63;;;7.70;99.90;;;;;;4978718;28;20458;-71
2021/12/16 11:51:07;;;;;;;22.70;17.40;;;7.80;99.90;;;;;;4978975;28;20470;-71
2021/12/16 11:53:39;;;;;;;20.10;15.30;;;7.80;99.90;;;;;;4978812;28;20443;-71
2021/12/16 11:56:06;;;;;;;19.47;16.03;;;7.80;99.90;;;;;;4979426;28;20458;-71
2021/12/16 11:58:33;;;;;;;21.03;16.07;;;7.80;99.90;;;;;;4979236;28;20937;-71
2021/12/16 12:01:12;;;;;;;21.50;16.13;;;7.80;99.90;;;;;;4978096;28;20490;-71
2021/12/16 12:03:39;;;;;;;21.10;15.33;;;7.70;99.90;;;;;;4978334;28;20458;-71
2021/12/16 12:06:05;;;;;;;20.77;14.83;;;7.70;99.90;;;;;;4978699;28;20459;-71
2021/12/16 12:08:32;;;;;;;21.80;15.90;;;7.80;99.90;;;;;;4977962;28;20462;-71
2021/12/16 12:11:06;;;;;;;20.03;16.80;;;7.90;99.90;;;;;;4978264;28;20475;-71
2021/12/16 12:13:38;;;;;;;20.10;15.57;;;7.90;99.90;;;;;;4978212;28;20440;-71
2021/12/16 12:16:08;;;;;;;19.67;14.40;;;7.90;99.90;;;;;;4978447;28;20832;-71
2021/12/16 12:18:39;;;;;;;19.00;15.60;;;8.00;99.90;;;;;;4979226;28;20444;-71
2021/12/16 12:21:18;;;;;;;18.17;14.90;;;8.10;99.90;;;;;;4984458;28;20486;-71
2021/12/16 12:23:47;;;;;;;19.17;15.73;;;8.00;99.90;;;;;;4978404;28;20439;-71
2021/12/16 12:26:16;;;;;;;19.73;14.50;;;8.00;99.90;;;;;;4978740;28;20462;-71
2021/12/16 12:28:44;;;;;;;19.87;15.33;;;8.00;99.90;;;;;;4978809;28;20459;-71
2021/12/16 12:31:11;;;;;;;17.27;14.10;;;8.10;99.90;;;;;;4978170;28;20471;-71
2021/12/16 12:33:38;;;;;;;16.70;14.80;;;8.10;99.90;;;;;;4978197;28;20444;-71
2021/12/16 12:36:07;;;;;;;23.10;17.23;;;8.20;99.90;;;;;;4977820;28;20459;-71
2021/12/16 12:38:36;;;;;;;18.43;14.43;;;8.10;99.90;;;;;;4978076;28;20512;-71
2021/12/16 12:41:03;;;;;;;17.87;15.30;;;8.20;99.90;;;;;;4978205;28;20494;-71
2021/12/16 12:43:33;;;;;;;18.10;15.00;;;8.30;99.90;;;;;;4977795;28;20455;-71
2021/12/16 12:46:00;;;;;;;22.57;16.20;;;8.50;99.90;;;;;;4987396;28;20451;-71
2021/12/16 12:48:27;;;;;;;17.90;14.70;;;8.60;99.90;;;;;;4987551;28;20466;-71
2021/12/16 12:50:58;;;;;;;17.73;15.37;;;8.80;99.90;;;;;;4979085;28;20801;-71
2021/12/16 12:53:31;;;;;;;21.93;15.63;;;8.80;99.90;;;;;;4978530;28;20526;-71
2021/12/16 12:56:10;;;;;;;18.00;15.17;;;9.00;99.90;;;;;;4977820;28;20443;-71
2021/12/16 12:58:49;;;;;;;21.20;16.43;;;9.00;99.90;;;;;;4977806;28;20443;-71
2021/12/16 13:01:16;;;;;;;17.40;14.67;;;9.10;99.90;;;;;;4977123;28;20479;-71
2021/12/16 13:03:43;;;;;;;20.13;14.30;;;9.20;99.90;;;;;;4977662;28;20459;-71
2021/12/16 13:06:12;;;;;;;17.90;14.47;;;9.10;99.90;;;;;;4979486;28;20458;-72
2021/12/16 13:08:41;;;;;;;17.90;14.33;;;9.10;99.90;;;;;;4977822;28;20466;-71
2021/12/16 13:11:11;;;;;;;19.20;15.07;;;9.10;99.90;;;;;;4977027;28;20978;-71
2021/12/16 13:13:58;;;;;;;14.93;13.33;;;9.10;99.90;;;;;;4977362;28;20458;-72
2021/12/16 13:16:53;;;;;;;17.93;14.63;;;9.00;99.90;;;;;;4976960;28;20623;-70
2021/12/16 13:25:44;;;;;;;18.30;14.07;;;9.00;99.90;;;;;;4977641;28;20910;-71
2021/12/16 13:28:14;;;;;;;18.67;14.37;;;9.10;99.90;;;;;;4976779;28;20518;-71
2021/12/16 13:30:53;;;;;;;15.97;13.80;;;9.00;99.90;;;;;;4977305;28;20479;-71
2021/12/16 13:33:24;;;;;;;15.20;13.30;;;9.10;99.90;;;;;;4977458;28;20439;-71
2021/12/16 13:36:01;;;;;;;16.10;14.37;;;9.10;99.90;;;;;;4977523;28;20516;-71
2021/12/16 13:38:37;;;;;;;15.40;12.50;;;9.10;99.90;;;;;;4979576;28;20506;-71
2021/12/16 13:41:13;;;;;;;17.00;13.90;;;9.20;99.90;;;;;;4976404;28;20510;-71
2021/12/16 13:43:40;;;;;;;16.53;13.87;;;9.10;99.90;;;;;;4976943;28;20439;-70
2021/12/16 13:46:29;;;;;;;16.43;14.00;;;9.20;99.90;;;;;;4976565;28;20528;-70
2021/12/16 13:58:12;;;;;;;20.00;14.67;;;9.20;99.90;;;;;;4978909;28;20435;-71
2021/12/16 14:03:51;;;;;;;18.50;15.17;;;8.80;99.90;;;;;;4931759;28;20446;-70
2021/12/16 14:06:36;;;;;;;18.90;15.60;;;8.80;99.90;;;;;;4978619;28;20435;-71
2021/12/16 14:09:14;;;;;;;16.93;15.07;;;8.80;99.90;;;;;;4977429;28;20436;-70
2021/12/16 14:15:08;;;;;;;20.47;15.33;;;8.70;99.90;;;;;;4975990;28;20446;-70
2021/12/16 14:17:46;;;;;;;16.40;14.07;;;8.60;99.90;;;;;;4977670;28;20459;-70
2021/12/16 14:23:23;;;;;;;17.67;14.80;;;8.60;99.90;;;;;;4976062;28;20486;-72
2021/12/16 14:31:51;;;;;;;16.50;14.37;;;8.60;99.90;;;;;;4977443;28;20451;-71
2021/12/16 14:37:21;;;;;;;18.30;15.20;;;8.50;99.90;;;;;;4898249;29;20454;-72
2021/12/16 14:40:06;;;;;;;19.30;15.20;;;8.50;99.90;;;;;;4962747;28;20459;-71
2021/12/16 14:42:43;;;;;;;18.40;16.00;;;8.50;99.90;;;;;;4977440;28;20486;-71
2021/12/16 14:45:27;;;;;;;19.73;15.47;;;8.50;99.90;;;;;;4977732;28;20462;-71
2021/12/16 14:48:07;;;;;;;20.53;17.63;;;8.50;99.90;;;;;;4978172;28;20443;-71
2021/12/16 14:50:37;;;;;;;17.07;14.80;;;8.40;99.90;;;;;;4976957;28;20913;-71
2021/12/16 14:53:15;;;;;;;18.30;15.37;;;8.40;99.90;;;;;;4977378;28;20792;-71
2021/12/16 14:55:43;;;;;;;18.43;14.87;;;8.40;99.90;;;;;;4977004;28;20447;-71
2021/12/16 14:58:09;;;;;;;22.47;15.60;;;8.30;99.90;;;;;;4976467;28;20459;-70
2021/12/16 15:00:42;;;;;;;17.07;15.20;;;8.30;99.90;;;;;;4975266;28;20495;-71
2021/12/16 15:03:13;;;;;;;21.10;14.80;;;8.30;99.90;;;;;;4975574;28;20470;-71
2021/12/16 15:05:44;;;;;;;20.60;15.03;;;8.30;99.90;;;;;;4975850;28;20843;-71
2021/12/16 15:08:20;;;;;;;18.20;15.20;;;8.30;99.90;;;;;;4975494;28;20475;-70
2021/12/16 15:10:47;;;;;;;19.67;15.53;;;8.30;99.90;;;;;;4979111;28;20890;-71
2021/12/16 15:13:20;;;;;;;18.23;14.70;;;8.30;99.90;;;;;;4981422;28;20439;-71
2021/12/16 15:16:05;;;;;;;17.07;14.27;;;8.20;99.90;;;;;;4984324;28;20494;-70
2021/12/16 15:42:42;;;;;;;20.40;16.00;;;7.80;99.90;;;;;;4979187;28;20514;-71
2021/12/16 15:43:45;;;;;;;18.97;15.10;;;7.80;99.90;;;;;;4978789;28;20451;-68
2021/12/16 15:46:12;;;;;;;19.07;15.97;;;7.70;99.90;;;;;;4978797;28;20549;-67
2021/12/16 15:48:39;;;;;;;19.20;15.13;;;7.70;99.90;;;;;;4979023;28;20451;-71
2021/12/16 15:51:09;;;;;;;20.37;16.23;;;7.70;99.90;;;;;;4983690;28;20471;-70
2021/12/16 15:53:39;;;;;;;47.90;30.63;;;7.70;99.90;;;;;;4986874;28;20455;-70
2021/12/16 15:56:10;;;;;;;125.03;83.20;;;7.70;99.90;;;;;;4983854;28;20459;-71
2021/12/16 15:58:41;;;;;;;105.33;63.90;;;7.70;99.90;;;;;;4980517;28;20438;-70
2021/12/16 16:01:11;;;;;;;68.90;44.27;;;7.60;99.90;;;;;;4979831;28;20510;-71
2021/12/16 16:03:39;;;;;;;41.03;27.77;;;7.60;99.90;;;;;;4979054;28;20455;-71
2021/12/16 16:06:08;;;;;;;27.63;21.40;;;7.60;99.90;;;;;;4978614;28;20455;-70
2021/12/16 16:08:38;;;;;;;22.63;18.10;;;7.60;99.90;;;;;;4978861;28;20455;-70
2021/12/16 16:11:10;;;;;;;22.47;17.80;;;7.60;99.90;;;;;;4980478;28;20903;-71
2021/12/16 16:13:42;;;;;;;26.43;19.27;;;7.60;99.90;;;;;;4980153;28;20450;-71
2021/12/16 16:16:15;;;;;;;20.80;16.83;;;7.50;99.90;;;;;;4979537;28;20439;-70
2021/12/16 16:18:53;;;;;;;18.50;14.93;;;7.40;99.90;;;;;;4980721;28;20436;-70
2021/12/16 16:21:24;;;;;;;20.77;15.80;;;7.40;99.90;;;;;;4977604;28;20482;-69
2021/12/16 16:23:54;;;;;;;17.90;15.67;;;7.40;99.90;;;;;;4978431;28;20462;-70
2021/12/16 16:26:24;;;;;;;17.43;15.23;;;7.40;99.90;;;;;;4978510;28;20817;-70
2021/12/16 16:28:56;;;;;;;18.80;15.43;;;7.40;99.90;;;;;;4978724;28;20847;-71
2021/12/16 16:31:27;;;;;;;18.20;15.00;;;7.40;99.90;;;;;;4979767;28;20471;-70
2021/12/16 16:33:54;;;;;;;20.17;15.53;;;7.40;99.90;;;;;;4978947;28;20443;-70
2021/12/16 16:36:25;;;;;;;21.83;15.50;;;7.40;99.90;;;;;;4979214;28;20454;-70
2021/12/16 16:38:55;;;;;;;20.73;14.03;;;7.40;99.90;;;;;;4979575;28;20440;-74
2021/12/16 16:41:26;;;;;;;19.57;16.20;;;7.40;99.90;;;;;;4979763;28;20487;-71
2021/12/16 16:43:56;;;;;;;20.50;15.40;;;7.40;99.90;;;;;;4979106;28;20926;-70
2021/12/16 16:46:33;;;;;;;21.93;15.30;;;7.30;99.90;;;;;;4979598;28;20455;-71
2021/12/16 16:49:05;;;;;;;19.03;15.70;;;7.30;99.90;;;;;;4979285;28;20902;-70
2021/12/16 16:51:37;;;;;;;19.30;15.30;;;7.20;99.90;;;;;;4980004;28;20479;-71
2021/12/16 16:54:10;;;;;;;19.60;14.60;;;7.10;99.90;;;;;;4977972;28;20467;-71
2021/12/16 16:56:50;;;;;;;18.03;15.53;;;7.10;99.90;;;;;;4979855;28;20447;-70
2021/12/16 16:59:20;;;;;;;20.00;14.97;;;7.00;99.90;;;;;;4977561;28;20443;-69
2021/12/16 17:01:47;;;;;;;20.83;15.10;;;6.90;99.90;;;;;;4977209;28;20490;-71
2021/12/16 17:04:17;;;;;;;18.87;15.43;;;6.80;99.90;;;;;;4977477;28;20566;-71
2021/12/16 17:06:54;;;;;;;18.73;15.83;;;6.70;99.90;;;;;;4977561;28;20915;-72
2021/12/16 17:09:21;;;;;;;20.20;15.10;;;6.70;99.90;;;;;;4977236;28;20932;-71
2021/12/16 17:11:53;;;;;;;21.10;15.87;;;6.60;99.90;;;;;;4977183;28;20471;-72
2021/12/16 17:14:32;;;;;;;19.57;14.93;;;6.60;99.90;;;;;;4977415;28;20447;-71
2021/12/16 17:17:22;;;;;;;19.30;15.40;;;6.60;99.90;;;;;;4977737;28;20443;-70
2021/12/16 17:19:57;;;;;;;20.17;14.80;;;6.60;99.90;;;;;;4977281;28;20538;-71
2021/12/16 17:22:28;;;;;;;20.83;15.83;;;6.60;99.90;;;;;;4977064;28;20522;-70
2021/12/16 17:24:55;;;;;;;26.83;15.70;;;6.50;99.90;;;;;;4976712;28;20804;-70
2021/12/16 17:27:25;;;;;;;19.13;15.17;;;6.50;99.90;;;;;;4976683;28;20455;-70
2021/12/16 17:29:54;;;;;;;18.30;14.80;;;6.50;99.90;;;;;;4977208;28;20459;-71
2021/12/16 17:32:25;;;;;;;22.77;16.50;;;6.40;99.90;;;;;;4975589;28;20471;-70
2021/12/16 17:34:55;;;;;;;21.67;16.03;;;6.40;99.90;;;;;;4977110;28;20459;-71
2021/12/16 17:37:25;;;;;;;21.13;16.90;;;6.40;99.90;;;;;;4977726;28;20451;-71
2021/12/16 17:39:54;;;;;;;25.30;17.57;;;6.40;99.90;;;;;;4976932;28;20451;-71
2021/12/16 17:42:25;;;;;;;21.17;16.80;;;6.30;99.90;;;;;;4977039;28;20490;-70
2021/12/16 17:44:57;;;;;;;18.67;15.63;;;6.30;99.90;;;;;;4977298;28;20442;-68
2021/12/16 17:47:27;;;;;;;28.23;16.53;;;6.30;99.90;;;;;;4976379;28;20443;-71
2021/12/16 17:49:54;;;;;;;22.97;16.50;;;6.40;99.90;;;;;;4976283;28;20455;-72
2021/12/16 17:52:24;;;;;;;22.83;17.10;;;6.50;99.90;;;;;;4976157;28;21057;-72
2021/12/16 17:54:57;;;;;;;24.10;17.40;;;6.60;99.90;;;;;;4976494;28;20455;-72
2021/12/16 17:57:32;;;;;;;26.67;17.83;;;6.60;99.90;;;;;;4976380;28;20930;-72
2021/12/16 18:00:00;;;;;;;22.97;16.93;;;6.50;99.90;;;;;;4976220;28;20914;-72
2021/12/16 18:02:28;;;;;;;27.20;18.57;;;6.50;99.90;;;;;;4976420;28;20490;-71
2021/12/16 18:04:59;;;;;;;21.27;16.83;;;6.40;99.90;;;;;;4976079;28;20946;-71
2021/12/16 18:07:27;;;;;;;24.00;16.47;;;6.40;99.90;;;;;;4976458;28;20446;-72
2021/12/16 18:09:54;;;;;;;27.67;18.33;;;6.40;99.90;;;;;;4975944;28;20492;-72
2021/12/16 18:12:24;;;;;;;22.20;16.57;;;6.30;99.90;;;;;;4976429;28;20478;-71
2021/12/16 18:14:55;;;;;;;22.53;16.87;;;6.30;99.90;;;;;;4975748;28;20497;-73
2021/12/16 18:17:26;;;;;;;21.33;17.20;;;6.30;99.90;;;;;;4976824;28;20443;-73
2021/12/16 18:19:56;;;;;;;27.07;17.57;;;6.30;99.90;;;;;;4976451;28;20539;-73
2021/12/16 18:22:27;;;;;;;28.33;17.90;;;6.30;99.90;;;;;;4976173;28;20578;-72
2021/12/16 18:24:56;;;;;;;25.13;18.67;;;6.20;99.90;;;;;;4976591;28;20450;-73
2021/12/16 18:27:27;;;;;;;21.43;16.00;;;6.20;99.90;;;;;;4976781;28;20811;-73
2021/12/16 18:29:58;;;;;;;20.83;17.37;;;6.10;99.90;;;;;;4975990;28;20483;-73
2021/12/16 18:32:30;;;;;;;23.43;17.50;;;6.10;99.90;;;;;;4976520;28;20483;-71
2021/12/16 18:34:57;;;;;;;25.17;17.10;;;6.10;99.90;;;;;;4976034;28;20469;-72
2021/12/16 18:37:24;;;;;;;19.47;16.77;;;6.00;99.90;;;;;;4975916;28;20458;-71
2021/12/16 18:39:53;;;;;;;23.47;18.97;;;6.00;99.90;;;;;;4975508;28;20466;-71
2021/12/16 18:42:27;;;;;;;34.00;22.40;;;6.10;99.90;;;;;;4975594;28;20487;-71
2021/12/16 18:44:59;;;;;;;24.33;19.30;;;6.00;99.90;;;;;;4978241;28;20805;-71
2021/12/16 18:47:35;;;;;;;20.27;16.63;;;6.00;99.90;;;;;;4979750;28;20444;-71
2021/12/16 18:50:09;;;;;;;23.30;16.73;;;6.00;99.90;;;;;;4979170;28;20850;-71
2021/12/16 18:54:27;;;;;;;25.47;15.63;;;6.00;99.90;;;;;;4981020;28;20970;-70
2021/12/16 18:55:32;;;;;;;20.17;15.47;;;6.00;99.90;;;;;;4989181;28;20530;-70
2021/12/16 18:57:59;;;;;;;16.83;14.37;;;6.00;99.90;;;;;;4983173;28;20455;-70
2021/12/16 19:00:27;;;;;;;17.67;15.03;;;6.00;99.90;;;;;;4979293;28;20451;-71
2021/12/16 19:02:54;;;;;;;17.67;15.57;;;6.00;99.90;;;;;;4979799;28;20467;-70
2021/12/16 19:05:22;;;;;;;20.43;15.80;;;5.90;99.90;;;;;;4980021;28;20476;-71
2021/12/16 19:07:49;;;;;;;21.50;16.33;;;5.90;99.90;;;;;;4979564;28;20950;-71
2021/12/16 19:10:17;;;;;;;23.73;16.70;;;5.90;99.90;;;;;;4979331;28;20475;-72